sensor_id;sensor_type;location;lat;lon;timestamp;P1;durP1;ratioP1;P2;durP2;ratioP2
15285;SDS011;7744;52.172;10.668;2023-05-10T00:01:03;5.87;;;5.27;;
15285;SDS011;7744;52.172;10.668;2023-05-10T00:03:29;6.17;;;5.57;;
15285;SDS011;7744;52.172;10.668;2023-05-10T00:05:55;6.90;;;5.27;;
15285;SDS011;7744;52.172;10.668;2023-05-10T00:08:20;5.17;;;4.67;;
15285;SDS011;7744;52.172;10.668;2023-05-10T00:10:46;6.17;;;5.20;;
15285;SDS011;7744;52.172;10.668;2023-05-10T00:13:11;5.90;;;5.40;;
15285;SDS011;7744;52.172;10.668;2023-05-10T00:15:37;5.70;;;5.10;;
15285;SDS011;7744;52.172;10.668;2023-05-10T00:18:03;6.37;;;5.57;;
15285;SDS011;7744;52.172;10.668;2023-05-10T00:20:28;6.10;;;5.50;;
15285;SDS011;7744;52.172;10.668;2023-05-10T00:22:54;5.83;;;5.30;;
15285;SDS011;7744;52.172;10.668;2023-05-10T00:25:20;6.83;;;5.83;;
15285;SDS011;7744;52.172;10.668;2023-05-10T00:27:46;6.37;;;5.77;;
15285;SDS011;7744;52.172;10.668;2023-05-10T00:30:12;5.83;;;5.33;;
15285;SDS011;7744;52.172;10.668;2023-05-10T00:32:38;5.47;;;4.97;;
15285;SDS011;7744;52.172;10.668;2023-05-10T00:35:04;5.63;;;5.13;;
15285;SDS011;7744;52.172;10.668;2023-05-10T00:37:30;6.47;;;5.30;;
15285;SDS011;7744;52.172;10.668;2023-05-10T00:39:55;5.97;;;5.47;;
15285;SDS011;7744;52.172;10.668;2023-05-10T00:42:21;5.83;;;5.33;;
15285;SDS011;7744;52.172;10.668;2023-05-10T00:44:47;6.30;;;5.70;;
15285;SDS011;7744;52.172;10.668;2023-05-10T00:47:13;5.80;;;5.23;;
15285;SDS011;7744;52.172;10.668;2023-05-10T00:49:40;6.20;;;5.60;;
15285;SDS011;7744;52.172;10.668;2023-05-10T00:52:06;6.20;;;5.50;;
15285;SDS011;7744;52.172;10.668;2023-05-10T00:54:32;5.97;;;5.37;;
15285;SDS011;7744;52.172;10.668;2023-05-10T00:56:58;6.13;;;5.43;;
15285;SDS011;7744;52.172;10.668;2023-05-10T00:59:24;6.10;;;5.17;;
15285;SDS011;7744;52.172;10.668;2023-05-10T01:01:50;5.83;;;5.30;;
15285;SDS011;7744;52.172;10.668;2023-05-10T01:04:16;5.17;;;4.67;;
15285;SDS011;7744;52.172;10.668;2023-05-10T01:06:42;6.30;;;4.93;;
15285;SDS011;7744;52.172;10.668;2023-05-10T01:09:08;5.80;;;5.30;;
15285;SDS011;7744;52.172;10.668;2023-05-10T01:11:34;7.00;;;5.20;;
15285;SDS011;7744;52.172;10.668;2023-05-10T01:14:01;6.00;;;5.00;;
15285;SDS011;7744;52.172;10.668;2023-05-10T01:16:27;6.23;;;5.20;;
15285;SDS011;7744;52.172;10.668;2023-05-10T01:18:56;5.23;;;4.60;;
15285;SDS011;7744;52.172;10.668;2023-05-10T01:27:02;6.47;;;5.00;;
15285;SDS011;7744;52.172;10.668;2023-05-10T01:32:48;5.17;;;4.57;;
15285;SDS011;7744;52.172;10.668;2023-05-10T01:35:24;5.43;;;4.93;;
15285;SDS011;7744;52.172;10.668;2023-05-10T01:41:08;5.23;;;4.73;;
15285;SDS011;7744;52.172;10.668;2023-05-10T01:46:20;5.63;;;5.00;;
15285;SDS011;7744;52.172;10.668;2023-05-10T01:48:54;5.40;;;4.90;;
15285;SDS011;7744;52.172;10.668;2023-05-10T01:51:23;5.57;;;5.00;;
15285;SDS011;7744;52.172;10.668;2023-05-10T01:53:51;6.40;;;5.80;;
15285;SDS011;7744;52.172;10.668;2023-05-10T01:56:22;5.60;;;5.10;;
15285;SDS011;7744;52.172;10.668;2023-05-10T01:58:50;7.60;;;5.73;;
15285;SDS011;7744;52.172;10.668;2023-05-10T02:01:17;7.30;;;5.17;;
15285;SDS011;7744;52.172;10.668;2023-05-10T02:03:45;6.43;;;5.73;;
15285;SDS011;7744;52.172;10.668;2023-05-10T02:06:13;5.63;;;5.10;;
15285;SDS011;7744;52.172;10.668;2023-05-10T02:08:41;6.03;;;5.30;;
15285;SDS011;7744;52.172;10.668;2023-05-10T02:11:08;5.57;;;5.07;;
15285;SDS011;7744;52.172;10.668;2023-05-10T02:13:37;5.80;;;5.27;;
15285;SDS011;7744;52.172;10.668;2023-05-10T02:16:05;5.93;;;5.30;;
15285;SDS011;7744;52.172;10.668;2023-05-10T02:18:32;5.60;;;5.10;;
15285;SDS011;7744;52.172;10.668;2023-05-10T02:21:00;7.03;;;5.30;;
15285;SDS011;7744;52.172;10.668;2023-05-10T02:23:27;6.43;;;5.83;;
15285;SDS011;7744;52.172;10.668;2023-05-10T02:25:54;6.23;;;5.60;;
15285;SDS011;7744;52.172;10.668;2023-05-10T02:28:21;5.73;;;5.23;;
15285;SDS011;7744;52.172;10.668;2023-05-10T02:30:48;7.00;;;5.50;;
15285;SDS011;7744;52.172;10.668;2023-05-10T02:33:15;5.97;;;4.93;;
15285;SDS011;7744;52.172;10.668;2023-05-10T02:35:41;5.63;;;5.00;;
15285;SDS011;7744;52.172;10.668;2023-05-10T02:38:07;5.40;;;5.00;;
15285;SDS011;7744;52.172;10.668;2023-05-10T02:40:35;5.50;;;5.00;;
15285;SDS011;7744;52.172;10.668;2023-05-10T02:43:02;5.43;;;5.00;;
15285;SDS011;7744;52.172;10.668;2023-05-10T02:45:31;6.00;;;5.40;;
15285;SDS011;7744;52.172;10.668;2023-05-10T02:47:58;5.83;;;5.20;;
15285;SDS011;7744;52.172;10.668;2023-05-10T02:50:25;5.67;;;5.10;;
15285;SDS011;7744;52.172;10.668;2023-05-10T02:52:54;6.37;;;5.37;;
15285;SDS011;7744;52.172;10.668;2023-05-10T02:55:25;5.80;;;5.20;;
15285;SDS011;7744;52.172;10.668;2023-05-10T02:57:58;5.60;;;5.10;;
15285;SDS011;7744;52.172;10.668;2023-05-10T03:00:25;6.93;;;5.40;;
15285;SDS011;7744;52.172;10.668;2023-05-10T03:02:51;7.00;;;5.57;;
15285;SDS011;7744;52.172;10.668;2023-05-10T03:05:17;6.07;;;5.30;;
15285;SDS011;7744;52.172;10.668;2023-05-10T03:07:43;5.50;;;5.00;;
15285;SDS011;7744;52.172;10.668;2023-05-10T03:10:09;5.40;;;4.90;;
15285;SDS011;7744;52.172;10.668;2023-05-10T03:15:07;5.93;;;5.43;;
15285;SDS011;7744;52.172;10.668;2023-05-10T03:18:04;5.30;;;4.80;;
15285;SDS011;7744;52.172;10.668;2023-05-10T03:20:36;6.23;;;5.63;;
15285;SDS011;7744;52.172;10.668;2023-05-10T03:25:43;6.27;;;5.67;;
15285;SDS011;7744;52.172;10.668;2023-05-10T03:28:12;6.40;;;5.70;;
15285;SDS011;7744;52.172;10.668;2023-05-10T03:30:39;5.80;;;5.20;;
15285;SDS011;7744;52.172;10.668;2023-05-10T03:33:06;5.70;;;5.20;;
15285;SDS011;7744;52.172;10.668;2023-05-10T03:35:32;5.80;;;5.30;;
15285;SDS011;7744;52.172;10.668;2023-05-10T03:37:58;5.50;;;5.00;;
15285;SDS011;7744;52.172;10.668;2023-05-10T03:40:24;8.27;;;5.73;;
15285;SDS011;7744;52.172;10.668;2023-05-10T03:42:50;6.20;;;5.60;;
15285;SDS011;7744;52.172;10.668;2023-05-10T03:45:16;6.00;;;5.33;;
15285;SDS011;7744;52.172;10.668;2023-05-10T03:47:41;5.97;;;5.37;;
15285;SDS011;7744;52.172;10.668;2023-05-10T03:50:07;5.70;;;5.17;;
15285;SDS011;7744;52.172;10.668;2023-05-10T03:52:33;6.10;;;5.60;;
15285;SDS011;7744;52.172;10.668;2023-05-10T03:54:58;7.53;;;5.73;;
15285;SDS011;7744;52.172;10.668;2023-05-10T03:57:24;6.70;;;6.00;;
15285;SDS011;7744;52.172;10.668;2023-05-10T03:59:50;6.63;;;5.83;;
15285;SDS011;7744;52.172;10.668;2023-05-10T04:02:15;6.00;;;5.50;;
15285;SDS011;7744;52.172;10.668;2023-05-10T04:04:41;5.70;;;5.23;;
15285;SDS011;7744;52.172;10.668;2023-05-10T04:07:06;7.23;;;5.30;;
15285;SDS011;7744;52.172;10.668;2023-05-10T04:09:32;6.03;;;5.43;;
15285;SDS011;7744;52.172;10.668;2023-05-10T04:11:58;6.27;;;5.67;;
15285;SDS011;7744;52.172;10.668;2023-05-10T04:14:25;5.87;;;5.37;;
15285;SDS011;7744;52.172;10.668;2023-05-10T04:16:50;6.17;;;5.57;;
15285;SDS011;7744;52.172;10.668;2023-05-10T04:19:16;6.73;;;5.77;;
15285;SDS011;7744;52.172;10.668;2023-05-10T04:21:41;6.73;;;5.80;;
15285;SDS011;7744;52.172;10.668;2023-05-10T04:24:07;6.93;;;5.73;;
15285;SDS011;7744;52.172;10.668;2023-05-10T04:26:33;7.47;;;5.33;;
15285;SDS011;7744;52.172;10.668;2023-05-10T04:28:58;6.70;;;5.30;;
15285;SDS011;7744;52.172;10.668;2023-05-10T04:31:24;6.37;;;5.77;;
15285;SDS011;7744;52.172;10.668;2023-05-10T04:33:49;5.95;;;5.30;;
15285;SDS011;7744;52.172;10.668;2023-05-10T04:36:15;5.93;;;5.38;;
15285;SDS011;7744;52.172;10.668;2023-05-10T04:38:40;6.23;;;5.60;;
15285;SDS011;7744;52.172;10.668;2023-05-10T04:41:07;6.17;;;5.60;;
15285;SDS011;7744;52.172;10.668;2023-05-10T04:43:34;7.03;;;5.60;;
15285;SDS011;7744;52.172;10.668;2023-05-10T04:46:01;6.25;;;5.65;;
15285;SDS011;7744;52.172;10.668;2023-05-10T04:48:26;6.03;;;5.53;;
15285;SDS011;7744;52.172;10.668;2023-05-10T04:50:52;9.07;;;5.80;;
15285;SDS011;7744;52.172;10.668;2023-05-10T04:53:17;6.10;;;5.50;;
15285;SDS011;7744;52.172;10.668;2023-05-10T04:55:43;7.30;;;5.63;;
15285;SDS011;7744;52.172;10.668;2023-05-10T04:58:08;6.03;;;5.40;;
15285;SDS011;7744;52.172;10.668;2023-05-10T05:00:34;7.17;;;5.57;;
15285;SDS011;7744;52.172;10.668;2023-05-10T05:03:00;7.53;;;5.53;;
15285;SDS011;7744;52.172;10.668;2023-05-10T05:05:25;8.63;;;5.80;;
15285;SDS011;7744;52.172;10.668;2023-05-10T05:07:51;8.60;;;6.00;;
15285;SDS011;7744;52.172;10.668;2023-05-10T05:10:17;7.05;;;6.20;;
15285;SDS011;7744;52.172;10.668;2023-05-10T05:12:42;5.73;;;5.23;;
15285;SDS011;7744;52.172;10.668;2023-05-10T05:15:08;7.50;;;6.07;;
15285;SDS011;7744;52.172;10.668;2023-05-10T05:17:34;6.25;;;5.60;;
15285;SDS011;7744;52.172;10.668;2023-05-10T05:20:00;6.57;;;5.70;;
15285;SDS011;7744;52.172;10.668;2023-05-10T05:22:26;6.43;;;5.67;;
15285;SDS011;7744;52.172;10.668;2023-05-10T05:24:55;6.22;;;5.63;;
15285;SDS011;7744;52.172;10.668;2023-05-10T05:27:21;6.80;;;6.07;;
15285;SDS011;7744;52.172;10.668;2023-05-10T05:29:49;6.30;;;5.70;;
15285;SDS011;7744;52.172;10.668;2023-05-10T05:32:16;7.80;;;6.70;;
15285;SDS011;7744;52.172;10.668;2023-05-10T05:34:41;6.63;;;6.03;;
15285;SDS011;7744;52.172;10.668;2023-05-10T05:37:12;6.93;;;6.13;;
15285;SDS011;7744;52.172;10.668;2023-05-10T05:39:39;6.20;;;5.60;;
15285;SDS011;7744;52.172;10.668;2023-05-10T05:42:04;6.20;;;5.70;;
15285;SDS011;7744;52.172;10.668;2023-05-10T05:44:30;6.43;;;5.83;;
15285;SDS011;7744;52.172;10.668;2023-05-10T05:46:56;7.28;;;6.35;;
15285;SDS011;7744;52.172;10.668;2023-05-10T05:49:21;6.60;;;6.00;;
15285;SDS011;7744;52.172;10.668;2023-05-10T05:51:47;7.80;;;6.00;;
15285;SDS011;7744;52.172;10.668;2023-05-10T05:54:14;6.45;;;5.85;;
15285;SDS011;7744;52.172;10.668;2023-05-10T05:56:40;7.00;;;6.28;;
15285;SDS011;7744;52.172;10.668;2023-05-10T05:59:05;9.07;;;6.38;;
15285;SDS011;7744;52.172;10.668;2023-05-10T06:01:31;7.13;;;6.53;;
15285;SDS011;7744;52.172;10.668;2023-05-10T06:03:56;7.60;;;6.90;;
15285;SDS011;7744;52.172;10.668;2023-05-10T06:06:28;6.82;;;6.20;;
15285;SDS011;7744;52.172;10.668;2023-05-10T06:08:55;7.15;;;5.38;;
15285;SDS011;7744;52.172;10.668;2023-05-10T06:11:20;8.85;;;7.30;;
15285;SDS011;7744;52.172;10.668;2023-05-10T06:13:54;7.38;;;6.75;;
15285;SDS011;7744;52.172;10.668;2023-05-10T06:16:19;6.53;;;5.65;;
15285;SDS011;7744;52.172;10.668;2023-05-10T06:18:45;7.28;;;6.55;;
15285;SDS011;7744;52.172;10.668;2023-05-10T06:21:10;8.90;;;6.95;;
15285;SDS011;7744;52.172;10.668;2023-05-10T06:23:36;7.13;;;6.32;;
15285;SDS011;7744;52.172;10.668;2023-05-10T06:26:02;7.00;;;6.30;;
15285;SDS011;7744;52.172;10.668;2023-05-10T06:28:28;13.23;;;7.05;;
15285;SDS011;7744;52.172;10.668;2023-05-10T06:30:53;6.85;;;6.25;;
15285;SDS011;7744;52.172;10.668;2023-05-10T06:33:19;6.40;;;5.90;;
15285;SDS011;7744;52.172;10.668;2023-05-10T06:35:44;6.97;;;6.25;;
15285;SDS011;7744;52.172;10.668;2023-05-10T06:38:10;6.63;;;5.78;;
15285;SDS011;7744;52.172;10.668;2023-05-10T06:40:35;6.13;;;5.50;;
15285;SDS011;7744;52.172;10.668;2023-05-10T06:43:01;6.68;;;6.05;;
15285;SDS011;7744;52.172;10.668;2023-05-10T06:45:27;6.90;;;6.25;;
15285;SDS011;7744;52.172;10.668;2023-05-10T06:47:52;7.18;;;6.47;;
15285;SDS011;7744;52.172;10.668;2023-05-10T06:50:18;6.80;;;6.20;;
15285;SDS011;7744;52.172;10.668;2023-05-10T06:52:43;7.32;;;6.63;;
15285;SDS011;7744;52.172;10.668;2023-05-10T06:55:09;8.02;;;6.35;;
15285;SDS011;7744;52.172;10.668;2023-05-10T06:57:35;7.15;;;6.55;;
15285;SDS011;7744;52.172;10.668;2023-05-10T07:00:01;7.53;;;6.82;;
15285;SDS011;7744;52.172;10.668;2023-05-10T07:02:29;6.93;;;6.28;;
15285;SDS011;7744;52.172;10.668;2023-05-10T07:04:54;7.22;;;6.57;;
15285;SDS011;7744;52.172;10.668;2023-05-10T07:07:20;6.68;;;6.07;;
15285;SDS011;7744;52.172;10.668;2023-05-10T07:09:45;8.13;;;7.35;;
15285;SDS011;7744;52.172;10.668;2023-05-10T07:12:11;7.47;;;6.65;;
15285;SDS011;7744;52.172;10.668;2023-05-10T07:14:36;6.95;;;6.35;;
15285;SDS011;7744;52.172;10.668;2023-05-10T07:17:02;7.97;;;7.18;;
15285;SDS011;7744;52.172;10.668;2023-05-10T07:19:28;7.82;;;6.65;;
15285;SDS011;7744;52.172;10.668;2023-05-10T07:21:54;7.85;;;7.15;;
15285;SDS011;7744;52.172;10.668;2023-05-10T07:24:20;7.82;;;7.10;;
15285;SDS011;7744;52.172;10.668;2023-05-10T07:26:46;8.00;;;7.15;;
15285;SDS011;7744;52.172;10.668;2023-05-10T07:29:11;7.30;;;6.60;;
15285;SDS011;7744;52.172;10.668;2023-05-10T07:31:37;10.32;;;7.00;;
15285;SDS011;7744;52.172;10.668;2023-05-10T07:34:02;8.35;;;7.65;;
15285;SDS011;7744;52.172;10.668;2023-05-10T07:36:28;8.38;;;7.50;;
15285;SDS011;7744;52.172;10.668;2023-05-10T07:38:53;7.95;;;6.60;;
15285;SDS011;7744;52.172;10.668;2023-05-10T07:41:19;8.15;;;7.30;;
15285;SDS011;7744;52.172;10.668;2023-05-10T07:43:46;8.13;;;7.38;;
15285;SDS011;7744;52.172;10.668;2023-05-10T07:46:11;7.93;;;7.20;;
15285;SDS011;7744;52.172;10.668;2023-05-10T07:48:37;8.93;;;6.70;;
15285;SDS011;7744;52.172;10.668;2023-05-10T07:51:02;7.43;;;6.80;;
15285;SDS011;7744;52.172;10.668;2023-05-10T07:53:28;7.75;;;7.05;;
15285;SDS011;7744;52.172;10.668;2023-05-10T07:55:54;7.22;;;6.57;;
15285;SDS011;7744;52.172;10.668;2023-05-10T07:58:22;7.95;;;7.00;;
15285;SDS011;7744;52.172;10.668;2023-05-10T08:00:49;7.30;;;6.70;;
15285;SDS011;7744;52.172;10.668;2023-05-10T08:03:14;7.00;;;6.35;;
15285;SDS011;7744;52.172;10.668;2023-05-10T08:05:40;7.03;;;6.28;;
15285;SDS011;7744;52.172;10.668;2023-05-10T08:08:06;7.20;;;6.60;;
15285;SDS011;7744;52.172;10.668;2023-05-10T08:10:31;7.85;;;7.07;;
15285;SDS011;7744;52.172;10.668;2023-05-10T08:12:57;7.68;;;6.97;;
15285;SDS011;7744;52.172;10.668;2023-05-10T08:15:23;7.38;;;6.78;;
15285;SDS011;7744;52.172;10.668;2023-05-10T08:17:50;7.50;;;6.90;;
15285;SDS011;7744;52.172;10.668;2023-05-10T08:20:16;8.15;;;7.45;;
15285;SDS011;7744;52.172;10.668;2023-05-10T08:22:44;8.30;;;7.55;;
15285;SDS011;7744;52.172;10.668;2023-05-10T08:25:10;9.48;;;7.85;;
15285;SDS011;7744;52.172;10.668;2023-05-10T08:27:36;8.85;;;8.05;;
15285;SDS011;7744;52.172;10.668;2023-05-10T08:30:01;9.05;;;8.20;;
15285;SDS011;7744;52.172;10.668;2023-05-10T08:32:27;9.13;;;8.23;;
15285;SDS011;7744;52.172;10.668;2023-05-10T08:34:52;8.50;;;7.65;;
15285;SDS011;7744;52.172;10.668;2023-05-10T08:37:18;9.00;;;8.10;;
15285;SDS011;7744;52.172;10.668;2023-05-10T08:39:43;8.00;;;7.40;;
15285;SDS011;7744;52.172;10.668;2023-05-10T08:42:12;9.13;;;8.27;;
15285;SDS011;7744;52.172;10.668;2023-05-10T08:44:41;8.98;;;8.18;;
15285;SDS011;7744;52.172;10.668;2023-05-10T08:47:07;10.85;;;9.75;;
15285;SDS011;7744;52.172;10.668;2023-05-10T08:49:35;9.15;;;8.45;;
15285;SDS011;7744;52.172;10.668;2023-05-10T08:52:06;8.07;;;7.28;;
15285;SDS011;7744;52.172;10.668;2023-05-10T08:54:33;8.27;;;7.47;;
15285;SDS011;7744;52.172;10.668;2023-05-10T08:56:59;8.05;;;7.35;;
15285;SDS011;7744;52.172;10.668;2023-05-10T08:59:25;7.35;;;6.75;;
15285;SDS011;7744;52.172;10.668;2023-05-10T09:01:51;7.15;;;6.65;;
15285;SDS011;7744;52.172;10.668;2023-05-10T09:04:19;7.40;;;6.70;;
15285;SDS011;7744;52.172;10.668;2023-05-10T09:06:45;6.90;;;6.32;;
15285;SDS011;7744;52.172;10.668;2023-05-10T09:09:11;6.93;;;6.30;;
15285;SDS011;7744;52.172;10.668;2023-05-10T09:11:37;7.55;;;6.93;;
15285;SDS011;7744;52.172;10.668;2023-05-10T09:14:03;7.40;;;6.80;;
15285;SDS011;7744;52.172;10.668;2023-05-10T09:16:29;7.50;;;6.90;;
15285;SDS011;7744;52.172;10.668;2023-05-10T09:18:54;7.68;;;6.97;;
15285;SDS011;7744;52.172;10.668;2023-05-10T09:21:20;7.13;;;6.53;;
15285;SDS011;7744;52.172;10.668;2023-05-10T09:23:47;6.70;;;6.07;;
15285;SDS011;7744;52.172;10.668;2023-05-10T09:26:14;6.57;;;5.93;;
15285;SDS011;7744;52.172;10.668;2023-05-10T09:28:54;7.63;;;6.75;;
15285;SDS011;7744;52.172;10.668;2023-05-10T09:31:21;6.68;;;6.18;;
15285;SDS011;7744;52.172;10.668;2023-05-10T09:33:48;8.13;;;6.78;;
15285;SDS011;7744;52.172;10.668;2023-05-10T09:36:15;7.30;;;6.70;;
15285;SDS011;7744;52.172;10.668;2023-05-10T09:38:45;6.68;;;6.18;;
15285;SDS011;7744;52.172;10.668;2023-05-10T09:41:16;7.43;;;6.72;;
15285;SDS011;7744;52.172;10.668;2023-05-10T09:43:47;7.70;;;7.00;;
15285;SDS011;7744;52.172;10.668;2023-05-10T09:46:12;8.25;;;7.47;;
15285;SDS011;7744;52.172;10.668;2023-05-10T09:48:47;7.57;;;6.97;;
15285;SDS011;7744;52.172;10.668;2023-05-10T09:51:23;7.63;;;6.93;;
15285;SDS011;7744;52.172;10.668;2023-05-10T09:56:38;7.53;;;6.93;;
15285;SDS011;7744;52.172;10.668;2023-05-10T09:59:05;7.28;;;6.63;;
15285;SDS011;7744;52.172;10.668;2023-05-10T10:01:33;7.10;;;6.50;;
15285;SDS011;7744;52.172;10.668;2023-05-10T10:04:02;6.70;;;6.20;;
15285;SDS011;7744;52.172;10.668;2023-05-10T10:06:29;6.72;;;6.03;;
15285;SDS011;7744;52.172;10.668;2023-05-10T10:09:03;5.78;;;5.38;;
15285;SDS011;7744;52.172;10.668;2023-05-10T10:11:29;6.35;;;5.75;;
15285;SDS011;7744;52.172;10.668;2023-05-10T10:13:55;5.88;;;5.38;;
15285;SDS011;7744;52.172;10.668;2023-05-10T10:16:21;5.00;;;4.63;;
15285;SDS011;7744;52.172;10.668;2023-05-10T10:18:47;5.07;;;4.60;;
15285;SDS011;7744;52.172;10.668;2023-05-10T10:21:13;4.13;;;3.72;;
15285;SDS011;7744;52.172;10.668;2023-05-10T10:23:40;4.43;;;3.60;;
15285;SDS011;7744;52.172;10.668;2023-05-10T10:26:05;3.75;;;3.40;;
15285;SDS011;7744;52.172;10.668;2023-05-10T10:28:35;3.72;;;3.42;;
15285;SDS011;7744;52.172;10.668;2023-05-10T10:31:26;3.20;;;3.00;;
15285;SDS011;7744;52.172;10.668;2023-05-10T10:36:26;2.67;;;2.30;;
15285;SDS011;7744;52.172;10.668;2023-05-10T10:38:59;2.60;;;2.17;;
15285;SDS011;7744;52.172;10.668;2023-05-10T10:41:30;2.20;;;1.90;;
15285;SDS011;7744;52.172;10.668;2023-05-10T10:47:01;1.90;;;1.80;;
15285;SDS011;7744;52.172;10.668;2023-05-10T10:49:44;2.08;;;1.52;;
15285;SDS011;7744;52.172;10.668;2023-05-10T10:52:59;2.42;;;1.70;;
15285;SDS011;7744;52.172;10.668;2023-05-10T10:55:11;1.90;;;1.48;;
15285;SDS011;7744;52.172;10.668;2023-05-10T10:57:54;1.40;;;1.30;;
15285;SDS011;7744;52.172;10.668;2023-05-10T11:03:04;1.40;;;1.30;;
15285;SDS011;7744;52.172;10.668;2023-05-10T11:11:52;1.20;;;1.10;;
15285;SDS011;7744;52.172;10.668;2023-05-10T11:24:57;2.83;;;1.60;;
15285;SDS011;7744;52.172;10.668;2023-05-10T11:27:24;1.25;;;1.10;;
15285;SDS011;7744;52.172;10.668;2023-05-10T11:29:58;1.52;;;1.42;;
15285;SDS011;7744;52.172;10.668;2023-05-10T11:32:39;1.45;;;1.35;;
15285;SDS011;7744;52.172;10.668;2023-05-10T11:35:07;2.30;;;1.75;;
15285;SDS011;7744;52.172;10.668;2023-05-10T11:37:34;3.08;;;2.00;;
15285;SDS011;7744;52.172;10.668;2023-05-10T11:40:41;1.67;;;1.55;;
15285;SDS011;7744;52.172;10.668;2023-05-10T11:43:24;1.40;;;1.30;;
15285;SDS011;7744;52.172;10.668;2023-05-10T11:51:06;0.90;;;0.90;;
15285;SDS011;7744;52.172;10.668;2023-05-10T11:53:52;1.67;;;0.90;;
15285;SDS011;7744;52.172;10.668;2023-05-10T11:56:26;2.10;;;1.00;;
15285;SDS011;7744;52.172;10.668;2023-05-10T11:58:57;1.60;;;0.90;;
15285;SDS011;7744;52.172;10.668;2023-05-10T12:01:26;0.73;;;0.73;;
15285;SDS011;7744;52.172;10.668;2023-05-10T12:03:53;1.65;;;0.50;;
15285;SDS011;7744;52.172;10.668;2023-05-10T12:06:20;0.65;;;0.50;;
15285;SDS011;7744;52.172;10.668;2023-05-10T12:08:47;0.60;;;0.60;;
15285;SDS011;7744;52.172;10.668;2023-05-10T12:11:20;1.00;;;0.45;;
15285;SDS011;7744;52.172;10.668;2023-05-10T12:13:50;0.80;;;0.50;;
15285;SDS011;7744;52.172;10.668;2023-05-10T12:16:17;1.33;;;0.50;;
15285;SDS011;7744;52.172;10.668;2023-05-10T12:18:50;0.60;;;0.50;;
15285;SDS011;7744;52.172;10.668;2023-05-10T12:21:20;0.70;;;0.50;;
15285;SDS011;7744;52.172;10.668;2023-05-10T12:23:50;0.50;;;0.40;;
15285;SDS011;7744;52.172;10.668;2023-05-10T12:26:17;3.83;;;1.00;;
15285;SDS011;7744;52.172;10.668;2023-05-10T12:28:43;0.70;;;0.70;;
15285;SDS011;7744;52.172;10.668;2023-05-10T12:31:09;0.70;;;0.70;;
15285;SDS011;7744;52.172;10.668;2023-05-10T12:33:39;1.33;;;0.68;;
15285;SDS011;7744;52.172;10.668;2023-05-10T12:36:08;0.90;;;0.90;;
15285;SDS011;7744;52.172;10.668;2023-05-10T12:41:04;0.73;;;0.70;;
15285;SDS011;7744;52.172;10.668;2023-05-10T12:43:31;1.15;;;0.80;;
15285;SDS011;7744;52.172;10.668;2023-05-10T12:45:57;1.70;;;0.60;;
15285;SDS011;7744;52.172;10.668;2023-05-10T12:48:23;0.88;;;0.85;;
15285;SDS011;7744;52.172;10.668;2023-05-10T12:50:49;0.85;;;0.70;;
15285;SDS011;7744;52.172;10.668;2023-05-10T12:53:15;0.75;;;0.75;;
15285;SDS011;7744;52.172;10.668;2023-05-10T12:55:42;0.90;;;0.90;;
15285;SDS011;7744;52.172;10.668;2023-05-10T12:58:08;1.15;;;0.90;;
15285;SDS011;7744;52.172;10.668;2023-05-10T13:00:33;0.80;;;0.80;;
15285;SDS011;7744;52.172;10.668;2023-05-10T13:02:59;1.08;;;0.90;;
15285;SDS011;7744;52.172;10.668;2023-05-10T13:05:25;1.00;;;0.90;;
15285;SDS011;7744;52.172;10.668;2023-05-10T13:07:51;1.10;;;0.75;;
15285;SDS011;7744;52.172;10.668;2023-05-10T13:10:16;1.02;;;0.90;;
15285;SDS011;7744;52.172;10.668;2023-05-10T13:12:42;0.98;;;0.77;;
15285;SDS011;7744;52.172;10.668;2023-05-10T13:15:07;1.23;;;0.90;;
15285;SDS011;7744;52.172;10.668;2023-05-10T13:17:33;1.73;;;1.10;;
15285;SDS011;7744;52.172;10.668;2023-05-10T13:19:59;1.52;;;0.77;;
15285;SDS011;7744;52.172;10.668;2023-05-10T13:22:25;1.20;;;1.10;;
15285;SDS011;7744;52.172;10.668;2023-05-10T13:24:50;1.42;;;0.70;;
15285;SDS011;7744;52.172;10.668;2023-05-10T13:27:16;0.93;;;0.70;;
15285;SDS011;7744;52.172;10.668;2023-05-10T13:29:41;1.05;;;0.90;;
15285;SDS011;7744;52.172;10.668;2023-05-10T13:32:07;1.25;;;0.90;;
15285;SDS011;7744;52.172;10.668;2023-05-10T13:34:33;1.92;;;1.00;;
15285;SDS011;7744;52.172;10.668;2023-05-10T13:37:00;2.03;;;0.90;;
15285;SDS011;7744;52.172;10.668;2023-05-10T13:39:26;1.15;;;1.00;;
15285;SDS011;7744;52.172;10.668;2023-05-10T13:41:52;1.08;;;0.90;;
15285;SDS011;7744;52.172;10.668;2023-05-10T13:44:17;0.70;;;0.70;;
15285;SDS011;7744;52.172;10.668;2023-05-10T13:46:45;1.23;;;0.90;;
15285;SDS011;7744;52.172;10.668;2023-05-10T13:49:11;1.75;;;1.00;;
15285;SDS011;7744;52.172;10.668;2023-05-10T13:51:36;0.88;;;0.73;;
15285;SDS011;7744;52.172;10.668;2023-05-10T13:54:02;1.23;;;0.98;;
15285;SDS011;7744;52.172;10.668;2023-05-10T13:56:28;1.15;;;0.90;;
15285;SDS011;7744;52.172;10.668;2023-05-10T13:58:53;0.80;;;0.80;;
15285;SDS011;7744;52.172;10.668;2023-05-10T14:01:21;0.80;;;0.80;;
15285;SDS011;7744;52.172;10.668;2023-05-10T14:03:47;1.05;;;0.95;;
15285;SDS011;7744;52.172;10.668;2023-05-10T14:08:43;1.38;;;0.98;;
15285;SDS011;7744;52.172;10.668;2023-05-10T14:11:09;1.02;;;0.85;;
15285;SDS011;7744;52.172;10.668;2023-05-10T14:13:34;1.00;;;0.90;;
15285;SDS011;7744;52.172;10.668;2023-05-10T14:16:00;1.55;;;1.45;;
15285;SDS011;7744;52.172;10.668;2023-05-10T14:18:26;2.45;;;1.20;;
15285;SDS011;7744;52.172;10.668;2023-05-10T14:20:52;1.40;;;1.20;;
15285;SDS011;7744;52.172;10.668;2023-05-10T14:23:18;1.42;;;0.85;;
15285;SDS011;7744;52.172;10.668;2023-05-10T14:25:48;1.48;;;1.02;;
15285;SDS011;7744;52.172;10.668;2023-05-10T14:28:14;1.60;;;0.80;;
15285;SDS011;7744;52.172;10.668;2023-05-10T14:30:40;1.98;;;1.77;;
15285;SDS011;7744;52.172;10.668;2023-05-10T14:33:06;2.55;;;2.10;;
15285;SDS011;7744;52.172;10.668;2023-05-10T14:35:32;1.88;;;1.73;;
15285;SDS011;7744;52.172;10.668;2023-05-10T14:37:58;2.40;;;1.40;;
15285;SDS011;7744;52.172;10.668;2023-05-10T14:40:23;2.53;;;1.73;;
15285;SDS011;7744;52.172;10.668;2023-05-10T14:42:49;1.77;;;1.67;;
15285;SDS011;7744;52.172;10.668;2023-05-10T14:45:15;2.13;;;1.60;;
15285;SDS011;7744;52.172;10.668;2023-05-10T14:47:41;2.92;;;1.67;;
15285;SDS011;7744;52.172;10.668;2023-05-10T14:50:07;3.42;;;1.73;;
15285;SDS011;7744;52.172;10.668;2023-05-10T14:52:32;2.15;;;1.63;;
15285;SDS011;7744;52.172;10.668;2023-05-10T14:54:58;1.60;;;1.50;;
15285;SDS011;7744;52.172;10.668;2023-05-10T14:57:25;2.03;;;1.70;;
15285;SDS011;7744;52.172;10.668;2023-05-10T14:59:50;1.67;;;1.58;;
15285;SDS011;7744;52.172;10.668;2023-05-10T15:02:16;1.98;;;1.70;;
15285;SDS011;7744;52.172;10.668;2023-05-10T15:04:41;1.65;;;1.38;;
15285;SDS011;7744;52.172;10.668;2023-05-10T15:07:07;2.13;;;1.90;;
15285;SDS011;7744;52.172;10.668;2023-05-10T15:09:33;1.90;;;1.80;;
15285;SDS011;7744;52.172;10.668;2023-05-10T15:11:58;1.70;;;1.60;;
15285;SDS011;7744;52.172;10.668;2023-05-10T15:14:24;2.00;;;1.77;;
15285;SDS011;7744;52.172;10.668;2023-05-10T15:16:49;2.38;;;2.15;;
15285;SDS011;7744;52.172;10.668;2023-05-10T15:19:15;2.50;;;2.30;;
15285;SDS011;7744;52.172;10.668;2023-05-10T15:21:40;2.47;;;2.28;;
15285;SDS011;7744;52.172;10.668;2023-05-10T15:24:08;2.30;;;2.10;;
15285;SDS011;7744;52.172;10.668;2023-05-10T15:26:34;3.33;;;2.38;;
15285;SDS011;7744;52.172;10.668;2023-05-10T15:29:00;2.60;;;2.40;;
15285;SDS011;7744;52.172;10.668;2023-05-10T15:31:25;2.92;;;2.70;;
15285;SDS011;7744;52.172;10.668;2023-05-10T15:33:54;2.30;;;2.20;;
15285;SDS011;7744;52.172;10.668;2023-05-10T15:36:22;2.83;;;2.60;;
15285;SDS011;7744;52.172;10.668;2023-05-10T15:38:47;2.63;;;2.42;;
15285;SDS011;7744;52.172;10.668;2023-05-10T15:41:13;2.40;;;2.20;;
15285;SDS011;7744;52.172;10.668;2023-05-10T15:43:38;2.35;;;2.15;;
15285;SDS011;7744;52.172;10.668;2023-05-10T15:46:04;2.38;;;2.15;;